Time;durP1;ratioP1;P1;durP2;ratioP2;P2;SDS_P1;SDS_P2;PMS_P1;PMS_P2;Temp;Humidity;BMP_temperature;BMP_pressure;BME280_temperature;BME280_humidity;BME280_pressure;Samples;Min_cycle;Max_cycle;Signal;HPM_P1;HPM_P2
2021/03/02 00:01:14;;;;;;;8.20;5.97;;;3.30;99.90;;;;;;4707195;30;20457;-95
2021/03/02 00:03:40;;;;;;;8.03;5.90;;;3.30;99.90;;;;;;4705449;30;20463;-96
2021/03/02 00:06:07;;;;;;;9.87;6.10;;;3.30;99.90;;;;;;4710178;30;20250;-96
2021/03/02 00:08:36;;;;;;;8.33;6.13;;;3.30;99.90;;;;;;4718693;30;20203;-96
2021/03/02 00:11:02;;;;;;;10.67;6.33;;;3.40;99.90;;;;;;4715970;30;20454;-93
2021/03/02 00:13:29;;;;;;;8.10;6.00;;;3.40;99.90;;;;;;4706386;30;20464;-93
2021/03/02 00:16:01;;;;;;;8.07;6.03;;;3.40;99.90;;;;;;4707216;30;20564;-93
2021/03/02 00:18:41;;;;;;;6.60;5.57;;;3.30;99.90;;;;;;4719235;30;20558;-93
2021/03/02 00:21:15;;;;;;;8.00;6.67;;;3.30;99.90;;;;;;4721716;30;20483;-94
2021/03/02 00:24:03;;;;;;;9.50;6.00;;;3.20;99.90;;;;;;4709400;30;20452;-93
2021/03/02 00:26:32;;;;;;;7.97;6.53;;;3.20;99.90;;;;;;4705034;30;20539;-94
2021/03/02 00:29:03;;;;;;;7.57;6.10;;;3.10;99.90;;;;;;4714508;30;20873;-94
2021/03/02 00:31:32;;;;;;;7.70;5.80;;;3.10;99.90;;;;;;4708817;30;20524;-96
2021/03/02 00:33:58;;;;;;;9.03;6.73;;;3.10;99.90;;;;;;4716780;30;20481;-96
2021/03/02 00:36:24;;;;;;;7.30;5.90;;;3.10;99.90;;;;;;4705527;30;21151;-96
2021/03/02 00:38:49;;;;;;;7.50;6.23;;;3.00;99.90;;;;;;4707107;30;20480;-94
2021/03/02 00:41:15;;;;;;;13.07;8.63;;;3.00;99.90;;;;;;4703429;30;20227;-93
2021/03/02 00:43:41;;;;;;;11.17;7.60;;;3.00;99.90;;;;;;4702223;30;20210;-94
2021/03/02 00:46:07;;;;;;;11.37;8.80;;;3.00;99.90;;;;;;4707068;30;20262;-94
2021/03/02 00:48:32;;;;;;;11.97;8.83;;;2.90;99.90;;;;;;4705457;30;21093;-95
2021/03/02 00:50:59;;;;;;;13.93;10.20;;;2.90;99.90;;;;;;4704448;30;20777;-95
2021/03/02 00:53:25;;;;;;;17.07;12.90;;;2.90;99.90;;;;;;4705269;30;20293;-94
2021/03/02 00:55:51;;;;;;;20.60;12.73;;;3.00;99.90;;;;;;4704921;30;20906;-94
2021/03/02 00:58:16;;;;;;;15.27;11.73;;;3.00;99.90;;;;;;4706959;30;20225;-94
2021/03/02 01:00:42;;;;;;;14.03;10.47;;;3.00;99.90;;;;;;4703770;30;20229;-94
2021/03/02 01:03:08;;;;;;;15.00;10.00;;;3.00;99.90;;;;;;4706603;30;20566;-94
2021/03/02 01:05:33;;;;;;;14.67;10.20;;;2.90;99.90;;;;;;4703175;30;20223;-95
2021/03/02 01:07:59;;;;;;;15.00;10.20;;;2.80;99.90;;;;;;4719222;30;20203;-92
2021/03/02 01:10:24;;;;;;;10.57;7.90;;;2.70;99.90;;;;;;4717632;30;20199;-94
2021/03/02 01:12:50;;;;;;;12.13;8.80;;;2.50;99.90;;;;;;4704811;30;20215;-94
2021/03/02 01:15:16;;;;;;;13.70;8.90;;;2.40;99.90;;;;;;4701223;30;20716;-95
2021/03/02 01:17:49;;;;;;;14.97;9.17;;;2.30;99.90;;;;;;4709119;30;20200;-96
2021/03/02 01:20:26;;;;;;;10.50;8.33;;;2.40;99.90;;;;;;4733298;30;20195;-96
2021/03/02 01:22:52;;;;;;;11.63;8.13;;;2.40;99.90;;;;;;4719957;30;20484;-96
2021/03/02 01:25:17;;;;;;;10.70;8.10;;;2.40;99.90;;;;;;4709063;30;20217;-96
2021/03/02 01:27:43;;;;;;;11.73;8.47;;;2.40;99.90;;;;;;4718633;30;20232;-96
2021/03/02 01:30:11;;;;;;;13.17;8.37;;;2.50;99.90;;;;;;4706403;30;20643;-96
2021/03/02 01:32:37;;;;;;;11.33;8.00;;;2.50;99.90;;;;;;4708770;30;20681;-96
2021/03/02 01:35:10;;;;;;;11.13;7.80;;;2.50;99.90;;;;;;4719884;30;20468;-95
2021/03/02 01:37:37;;;;;;;10.67;7.60;;;2.50;99.90;;;;;;4713347;30;20504;-96
2021/03/02 01:40:21;;;;;;;11.60;7.37;;;2.50;99.90;;;;;;4717766;30;20678;-96
2021/03/02 01:42:49;;;;;;;13.90;9.03;;;2.50;99.90;;;;;;4704616;30;20477;-96
2021/03/02 01:45:17;;;;;;;9.03;7.53;;;2.50;99.90;;;;;;4704537;30;20965;-96
2021/03/02 01:47:45;;;;;;;12.30;7.77;;;2.40;99.90;;;;;;4708188;30;20898;-95
2021/03/02 01:50:12;;;;;;;10.63;7.53;;;2.30;99.90;;;;;;4717980;30;20470;-95
2021/03/02 01:52:38;;;;;;;12.60;7.60;;;2.40;99.90;;;;;;4707017;30;20461;-94
2021/03/02 01:55:06;;;;;;;12.30;8.10;;;2.30;99.90;;;;;;4706360;30;20458;-95
2021/03/02 01:57:32;;;;;;;11.10;7.67;;;2.20;99.90;;;;;;4720170;30;21530;-95
2021/03/02 01:59:58;;;;;;;11.40;7.90;;;2.20;99.90;;;;;;4721020;30;20461;-95
2021/03/02 02:02:57;;;;;;;10.27;8.30;;;2.10;99.90;;;;;;4717980;30;20469;-95
2021/03/02 02:05:25;;;;;;;11.00;7.50;;;2.10;99.90;;;;;;4705472;30;20203;-94
2021/03/02 02:07:55;;;;;;;10.30;7.53;;;2.00;99.90;;;;;;4711897;30;21572;-95
2021/03/02 02:10:33;;;;;;;13.30;8.50;;;2.10;99.90;;;;;;4719584;30;20795;-95
2021/03/02 02:13:07;;;;;;;10.47;7.43;;;2.20;99.90;;;;;;4706487;30;20452;-93
2021/03/02 02:15:38;;;;;;;11.80;7.70;;;2.10;99.90;;;;;;4722743;30;20447;-93
2021/03/02 02:18:06;;;;;;;11.37;7.80;;;2.10;99.90;;;;;;4708303;30;20460;-94
2021/03/02 02:20:35;;;;;;;11.30;7.47;;;2.10;99.90;;;;;;4710895;30;20473;-95
2021/03/02 02:23:29;;;;;;;12.10;7.53;;;2.10;99.90;;;;;;4724927;30;20576;-94
2021/03/02 02:26:28;;;;;;;9.80;7.90;;;2.10;99.90;;;;;;4703741;30;20524;-95
2021/03/02 02:28:55;;;;;;;10.30;7.10;;;1.90;99.90;;;;;;4704642;30;20477;-94
2021/03/02 02:31:21;;;;;;;10.93;7.70;;;1.90;99.90;;;;;;4703882;30;20461;-95
2021/03/02 02:33:50;;;;;;;10.30;7.60;;;1.90;99.90;;;;;;4703595;30;20482;-94
2021/03/02 02:36:16;;;;;;;12.77;8.30;;;1.80;99.90;;;;;;4701155;30;20464;-94
2021/03/02 02:38:46;;;;;;;10.73;7.87;;;1.80;99.90;;;;;;4706308;30;21059;-93
2021/03/02 02:41:14;;;;;;;11.30;7.07;;;1.70;99.90;;;;;;4706031;30;20564;-92
2021/03/02 02:43:41;;;;;;;13.80;7.93;;;1.70;99.90;;;;;;4704830;30;20462;-93
2021/03/02 02:46:07;;;;;;;11.10;7.40;;;1.80;99.90;;;;;;4710392;30;20899;-93
2021/03/02 02:48:40;;;;;;;10.83;7.50;;;1.80;99.90;;;;;;4713105;30;21191;-95
2021/03/02 02:51:06;;;;;;;11.90;7.97;;;1.70;99.90;;;;;;4719414;30;20582;-95
2021/03/02 02:53:32;;;;;;;13.80;8.40;;;1.80;99.90;;;;;;4702906;30;20499;-95
2021/03/02 02:56:03;;;;;;;14.27;8.50;;;1.80;99.90;;;;;;4708790;30;20207;-95
2021/03/02 02:58:54;;;;;;;17.63;8.03;;;1.80;99.90;;;;;;4718072;30;20506;-96
2021/03/02 03:01:21;;;;;;;12.80;8.40;;;1.80;99.90;;;;;;4719767;30;20489;-95
2021/03/02 03:03:49;;;;;;;10.13;7.23;;;1.90;99.90;;;;;;4721714;30;20560;-95
2021/03/02 03:06:19;;;;;;;11.90;8.07;;;1.90;99.90;;;;;;4725395;30;20489;-95
2021/03/02 03:08:50;;;;;;;12.07;7.90;;;1.90;99.90;;;;;;4711318;30;20491;-95
2021/03/02 03:11:20;;;;;;;12.03;7.97;;;1.80;99.90;;;;;;4713025;30;20464;-96
2021/03/02 03:13:46;;;;;;;11.00;7.30;;;1.80;99.90;;;;;;4714789;30;20487;-96
2021/03/02 03:16:13;;;;;;;12.67;7.43;;;1.80;99.90;;;;;;4725632;30;20481;-96
2021/03/02 03:18:56;;;;;;;9.77;7.30;;;1.70;99.90;;;;;;4726865;30;20460;-96
2021/03/02 03:21:22;;;;;;;15.23;8.50;;;1.70;99.90;;;;;;4711612;30;20955;-95
2021/03/02 03:23:50;;;;;;;12.57;7.60;;;1.70;99.90;;;;;;4709924;30;20476;-95
2021/03/02 03:26:18;;;;;;;11.00;7.27;;;1.60;99.90;;;;;;4721138;30;20493;-96
2021/03/02 03:28:46;;;;;;;10.57;7.60;;;1.60;99.90;;;;;;4711609;30;21793;-96
2021/03/02 03:31:13;;;;;;;13.63;8.17;;;1.60;99.90;;;;;;4723409;30;20517;-96
2021/03/02 03:33:40;;;;;;;13.33;8.03;;;1.40;99.90;;;;;;4707537;30;20468;-94
2021/03/02 03:36:08;;;;;;;10.70;7.53;;;1.40;99.90;;;;;;4708305;30;20805;-94
2021/03/02 03:38:34;;;;;;;11.30;7.47;;;1.30;99.90;;;;;;4722015;30;20469;-93
2021/03/02 03:40:59;;;;;;;11.80;7.80;;;1.30;99.90;;;;;;4710242;30;20567;-94
2021/03/02 03:43:25;;;;;;;9.73;7.60;;;1.20;99.90;;;;;;4706675;30;20200;-94
2021/03/02 03:45:51;;;;;;;13.00;8.27;;;1.20;99.90;;;;;;4711669;30;20496;-93
2021/03/02 03:48:16;;;;;;;11.27;7.37;;;1.30;99.90;;;;;;4708873;30;20494;-94
2021/03/02 03:50:42;;;;;;;11.63;7.60;;;1.30;99.90;;;;;;4704937;30;20203;-93
2021/03/02 03:53:09;;;;;;;12.63;8.07;;;1.40;99.90;;;;;;4708830;30;20246;-93
2021/03/02 03:55:48;;;;;;;10.53;8.20;;;1.30;99.90;;;;;;4704444;30;20199;-92
2021/03/02 03:58:25;;;;;;;16.53;11.40;;;1.30;99.90;;;;;;4719179;30;21176;-94
2021/03/02 04:00:52;;;;;;;19.00;12.40;;;1.30;99.90;;;;;;4721267;30;20457;-95
2021/03/02 04:03:25;;;;;;;16.67;11.33;;;1.30;99.90;;;;;;4709495;30;20446;-94
2021/03/02 04:05:51;;;;;;;18.17;11.43;;;1.30;99.90;;;;;;4704640;30;20503;-93
2021/03/02 04:08:18;;;;;;;13.03;8.80;;;1.30;99.90;;;;;;4707677;30;20476;-91
2021/03/02 04:10:46;;;;;;;15.40;10.10;;;1.30;99.90;;;;;;4708071;30;20536;-93
2021/03/02 04:13:14;;;;;;;15.67;10.07;;;1.20;99.90;;;;;;4704830;30;20464;-94
2021/03/02 04:15:41;;;;;;;11.80;8.57;;;1.20;99.90;;;;;;4706364;30;20497;-93
2021/03/02 04:18:12;;;;;;;13.83;8.87;;;1.30;99.90;;;;;;4706748;30;21220;-92
2021/03/02 04:20:38;;;;;;;13.10;8.13;;;1.30;99.90;;;;;;4719662;30;20848;-92
2021/03/02 04:23:04;;;;;;;12.67;8.67;;;1.30;99.90;;;;;;4698303;30;20470;-93
2021/03/02 04:25:31;;;;;;;13.70;8.70;;;1.20;99.90;;;;;;4701707;30;20473;-92
2021/03/02 04:27:57;;;;;;;11.70;8.23;;;1.20;99.90;;;;;;4709282;30;20457;-92
2021/03/02 04:30:23;;;;;;;13.67;8.97;;;1.20;99.90;;;;;;4715225;30;20470;-93
2021/03/02 04:32:49;;;;;;;15.07;8.93;;;1.20;99.90;;;;;;4708699;30;20484;-93
2021/03/02 04:35:14;;;;;;;11.73;8.83;;;1.20;99.90;;;;;;4704456;30;20463;-93
2021/03/02 04:37:40;;;;;;;12.50;9.17;;;1.10;99.90;;;;;;4702810;30;20214;-92
2021/03/02 04:40:07;;;;;;;13.87;9.00;;;1.20;99.90;;;;;;4718904;30;20821;-92
2021/03/02 04:42:34;;;;;;;13.20;9.17;;;1.20;99.90;;;;;;4703647;30;20199;-92
2021/03/02 04:44:59;;;;;;;12.27;8.73;;;1.20;99.90;;;;;;4705936;30;21084;-95
2021/03/02 04:47:28;;;;;;;11.50;8.67;;;1.20;99.90;;;;;;4706328;30;20500;-95
2021/03/02 04:49:54;;;;;;;13.33;9.10;;;1.20;99.90;;;;;;4725986;30;20461;-96
2021/03/02 04:52:19;;;;;;;18.70;10.77;;;1.20;99.90;;;;;;4729626;30;20465;-96
2021/03/02 04:54:45;;;;;;;12.90;9.43;;;1.10;99.90;;;;;;4738378;30;20207;-96
2021/03/02 04:57:11;;;;;;;12.27;8.97;;;1.10;99.90;;;;;;4724480;30;20293;-96
2021/03/02 04:59:37;;;;;;;11.10;8.00;;;1.10;99.90;;;;;;4705761;30;20977;-96
2021/03/02 05:02:03;;;;;;;10.87;7.90;;;1.10;99.90;;;;;;4705220;30;21212;-96
2021/03/02 05:04:28;;;;;;;13.00;8.47;;;1.10;99.90;;;;;;4717857;30;20469;-96
2021/03/02 05:06:54;;;;;;;11.83;8.57;;;1.00;99.90;;;;;;4723676;30;20653;-95
2021/03/02 05:09:20;;;;;;;12.83;8.47;;;1.00;99.90;;;;;;4736385;30;20215;-96
2021/03/02 05:11:46;;;;;;;16.90;8.90;;;1.00;99.90;;;;;;4714417;30;20898;-96
2021/03/02 05:14:11;;;;;;;12.27;8.23;;;0.90;99.90;;;;;;4730875;30;20231;-96
2021/03/02 05:16:37;;;;;;;13.80;9.17;;;0.90;99.90;;;;;;4714700;30;20207;-96
2021/03/02 05:19:03;;;;;;;14.77;9.07;;;0.90;99.90;;;;;;4726803;30;20195;-94
2021/03/02 05:21:28;;;;;;;12.57;8.93;;;0.80;99.90;;;;;;4703163;30;20232;-92
2021/03/02 05:23:54;;;;;;;12.10;8.97;;;0.80;99.90;;;;;;4718299;30;20458;-96
2021/03/02 05:26:21;;;;;;;14.23;9.60;;;0.80;99.90;;;;;;4721323;30;20741;-94
2021/03/02 05:28:50;;;;;;;16.90;9.20;;;0.80;99.90;;;;;;4717605;30;20226;-96
2021/03/02 05:31:16;;;;;;;12.50;8.97;;;0.80;99.90;;;;;;4735245;30;20524;-96
2021/03/02 05:33:42;;;;;;;14.80;9.53;;;0.70;99.90;;;;;;4713751;30;20497;-96
2021/03/02 05:36:08;;;;;;;11.47;8.13;;;0.70;99.90;;;;;;4708680;30;20839;-93
2021/03/02 06:07:31;;;;;;;16.17;8.27;;;0.50;99.90;;;;;;5361076;24;21625;-96
2021/03/02 06:09:57;;;;;;;13.57;8.67;;;0.50;99.90;;;;;;4764909;30;20241;-96
2021/03/02 06:33:01;;;;;;;11.50;8.60;;;0.70;99.90;;;;;;4772246;29;20502;-96
2021/03/02 06:35:57;;;;;;;10.67;7.90;;;0.70;99.90;;;;;;4759862;30;20455;-94
2021/03/02 06:38:28;;;;;;;13.00;8.73;;;0.70;99.90;;;;;;4713292;30;20245;-94
2021/03/02 06:41:27;;;;;;;12.97;8.50;;;0.70;99.90;;;;;;4760107;30;20465;-96
2021/03/02 06:44:10;;;;;;;14.93;9.40;;;0.80;99.90;;;;;;4771051;30;20460;-96
2021/03/02 06:49:45;;;;;;;13.15;8.70;;;1.00;99.90;;;;;;5001949;24;20514;-96
2021/03/02 06:52:18;;;;;;;14.23;8.10;;;1.10;99.90;;;;;;4762044;30;21346;-95
2021/03/02 06:54:46;;;;;;;12.73;8.30;;;1.00;99.90;;;;;;4746841;30;20568;-93
2021/03/02 06:57:18;;;;;;;14.80;9.30;;;1.00;99.90;;;;;;4744069;30;20449;-92
2021/03/02 06:59:53;;;;;;;12.90;7.63;;;1.00;99.90;;;;;;4740429;30;20458;-93
2021/03/02 07:02:40;;;;;;;12.30;8.17;;;1.00;99.90;;;;;;4756053;30;20845;-92
2021/03/02 07:05:08;;;;;;;12.47;8.50;;;1.10;99.90;;;;;;4740485;30;20502;-90
2021/03/02 07:07:33;;;;;;;11.67;8.00;;;1.10;99.90;;;;;;4739780;30;20495;-89
2021/03/02 07:10:01;;;;;;;11.17;8.10;;;1.30;99.90;;;;;;4758843;30;20981;-91
2021/03/02 07:12:33;;;;;;;15.53;9.13;;;1.40;99.90;;;;;;4741446;30;20595;-92
2021/03/02 07:15:01;;;;;;;11.10;8.40;;;1.60;99.90;;;;;;4741585;30;20524;-92
2021/03/02 07:17:27;;;;;;;12.97;8.20;;;1.60;99.90;;;;;;4745005;30;21004;-94
2021/03/02 07:19:56;;;;;;;12.47;8.17;;;1.70;99.90;;;;;;4757420;30;20552;-94
2021/03/02 07:22:22;;;;;;;13.77;9.23;;;1.80;99.90;;;;;;4739916;30;20543;-93
2021/03/02 07:24:50;;;;;;;12.00;8.53;;;1.90;99.90;;;;;;4740295;30;20483;-91
2021/03/02 07:27:26;;;;;;;114.57;83.57;;;2.00;99.90;;;;;;4738021;30;20506;-93
2021/03/02 07:30:00;;;;;;;61.27;47.07;;;2.20;99.90;;;;;;4758195;30;20491;-92
2021/03/02 07:35:59;;;;;;;14.43;9.40;;;2.50;99.90;;;;;;4755163;30;20466;-87
2021/03/02 07:38:25;;;;;;;14.93;10.50;;;2.60;99.90;;;;;;4737076;30;20538;-89
2021/03/02 07:40:57;;;;;;;16.83;10.83;;;2.70;99.90;;;;;;4758140;30;20462;-90
2021/03/02 07:43:31;;;;;;;13.97;10.50;;;2.90;99.90;;;;;;4752510;30;20531;-90
2021/03/02 07:45:58;;;;;;;13.80;9.97;;;3.10;99.90;;;;;;4741679;30;20534;-87
2021/03/02 07:48:33;;;;;;;12.43;9.03;;;3.40;99.90;;;;;;4762212;29;20540;-90
2021/03/02 07:51:24;;;;;;;13.90;9.70;;;3.60;99.90;;;;;;4740904;30;20542;-87
2021/03/02 07:54:11;;;;;;;19.90;10.63;;;4.00;99.90;;;;;;4742775;30;20447;-87
2021/03/02 07:56:36;;;;;;;12.27;8.93;;;4.20;99.90;;;;;;4760459;30;20448;-86
2021/03/02 07:59:05;;;;;;;12.77;9.70;;;4.50;99.90;;;;;;4742375;30;20478;-89
2021/03/02 08:01:32;;;;;;;13.90;10.40;;;4.60;99.90;;;;;;4741071;30;20197;-89
2021/03/02 08:04:28;;;;;;;12.67;10.43;;;4.80;99.90;;;;;;4741467;30;20459;-88
2021/03/02 08:07:14;;;;;;;15.17;10.93;;;5.00;99.90;;;;;;4750901;30;20495;-88
2021/03/02 08:09:39;;;;;;;14.37;10.77;;;5.20;99.90;;;;;;4754236;30;20488;-90
2021/03/02 08:12:30;;;;;;;24.37;11.17;;;5.40;99.90;;;;;;4755057;30;20487;-89
2021/03/02 08:14:58;;;;;;;13.40;10.10;;;5.70;99.90;;;;;;4739206;30;20217;-88
2021/03/02 08:17:26;;;;;;;14.53;10.40;;;5.80;99.90;;;;;;4755563;30;20662;-88
2021/03/02 08:20:03;;;;;;;17.73;10.70;;;6.00;99.90;;;;;;4754822;30;20454;-88
2021/03/02 08:22:33;;;;;;;15.00;10.87;;;6.10;99.90;;;;;;4735028;30;21883;-88
2021/03/02 08:25:04;;;;;;;14.90;9.83;;;6.40;99.90;;;;;;4739866;30;20495;-85
2021/03/02 08:27:42;;;;;;;12.37;10.43;;;6.50;99.90;;;;;;4738756;30;21879;-85
2021/03/02 08:30:19;;;;;;;15.30;10.50;;;6.40;99.90;;;;;;4737578;30;20484;-85
2021/03/02 08:32:44;;;;;;;14.40;10.70;;;6.20;99.90;;;;;;4741309;30;20490;-85
2021/03/02 08:35:21;;;;;;;15.80;11.30;;;5.90;99.90;;;;;;4759225;30;20435;-85
2021/03/02 08:37:49;;;;;;;13.80;10.10;;;5.80;99.90;;;;;;4756043;30;20221;-84
2021/03/02 08:40:22;;;;;;;13.63;10.70;;;5.80;99.90;;;;;;4758521;30;20486;-86
2021/03/02 08:43:07;;;;;;;14.90;10.97;;;6.00;99.90;;;;;;4741708;30;20922;-86
2021/03/02 08:45:43;;;;;;;23.33;12.27;;;6.10;99.90;;;;;;4740309;30;20455;-86
2021/03/02 08:48:12;;;;;;;13.40;10.53;;;6.10;99.90;;;;;;4739264;30;20469;-86
2021/03/02 08:50:38;;;;;;;16.13;11.33;;;6.40;99.90;;;;;;4753428;30;20473;-89
2021/03/02 08:53:04;;;;;;;11.70;10.13;;;6.80;99.90;;;;;;4752808;30;20467;-85
2021/03/02 08:55:38;;;;;;;13.50;10.40;;;7.30;99.90;;;;;;4755949;30;20459;-84
2021/03/02 08:58:04;;;;;;;14.30;10.70;;;7.60;99.90;;;;;;4739008;30;20197;-86
2021/03/02 09:00:30;;;;;;;14.47;11.57;;;8.00;99.90;;;;;;4754554;30;20440;-86
2021/03/02 09:02:56;;;;;;;14.70;12.03;;;8.40;99.90;;;;;;4753646;30;20828;-85
2021/03/02 09:05:22;;;;;;;13.67;10.90;;;8.60;99.10;;;;;;4744178;30;20513;-85
2021/03/02 09:08:09;;;;;;;14.57;11.53;;;8.80;99.20;;;;;;4739461;30;20889;-86
2021/03/02 09:10:35;;;;;;;13.40;11.47;;;9.10;97.80;;;;;;4755781;30;20543;-86
2021/03/02 09:13:06;;;;;;;14.47;11.90;;;9.40;98.50;;;;;;4752093;30;20476;-86
2021/03/02 09:15:39;;;;;;;14.03;11.73;;;9.70;96.60;;;;;;4753822;30;21001;-85
2021/03/02 09:18:16;;;;;;;15.47;11.97;;;9.60;95.20;;;;;;4732796;30;20442;-85
2021/03/02 09:20:54;;;;;;;14.60;11.20;;;9.50;96.50;;;;;;4742985;30;20468;-86
2021/03/02 09:23:20;;;;;;;12.13;10.50;;;9.60;97.60;;;;;;4743337;30;20457;-86
2021/03/02 09:25:48;;;;;;;16.00;11.03;;;9.70;95.70;;;;;;4741533;30;20463;-86
2021/03/02 09:28:16;;;;;;;13.80;10.80;;;9.40;95.90;;;;;;4755617;30;20511;-85
2021/03/02 09:30:42;;;;;;;14.77;12.10;;;9.10;97.20;;;;;;4750802;30;20910;-87
2021/03/02 09:33:08;;;;;;;13.97;12.27;;;9.10;97.80;;;;;;4756110;30;20784;-87
2021/03/02 09:35:34;;;;;;;16.33;11.90;;;9.30;97.70;;;;;;4756726;30;20456;-86
2021/03/02 09:38:00;;;;;;;17.13;11.67;;;9.50;96.70;;;;;;4756908;30;20479;-87
2021/03/02 09:40:25;;;;;;;14.50;10.77;;;9.80;96.60;;;;;;4759750;30;21831;-87
2021/03/02 09:42:57;;;;;;;15.10;12.90;;;10.10;96.00;;;;;;4753805;30;20796;-85
2021/03/02 09:45:23;;;;;;;16.20;12.57;;;10.40;96.70;;;;;;4753933;30;20235;-85
2021/03/02 09:48:01;;;;;;;15.80;13.13;;;10.60;94.00;;;;;;4749645;30;20580;-87
2021/03/02 09:50:38;;;;;;;17.10;12.27;;;10.90;93.70;;;;;;4735747;30;20193;-86
2021/03/02 09:53:35;;;;;;;17.30;13.70;;;11.20;92.30;;;;;;4751628;30;20477;-85
2021/03/02 09:56:15;;;;;;;16.00;13.40;;;11.00;92.20;;;;;;4746468;30;20457;-87
2021/03/02 09:58:49;;;;;;;15.97;13.53;;;11.20;92.00;;;;;;4756734;30;20512;-85
2021/03/02 10:01:25;;;;;;;16.73;13.70;;;11.40;92.00;;;;;;4738676;30;20454;-86
2021/03/02 10:03:51;;;;;;;16.03;13.33;;;11.30;94.10;;;;;;4751392;30;20451;-85
2021/03/02 10:06:23;;;;;;;21.33;13.83;;;11.40;93.30;;;;;;4748614;30;20553;-86
2021/03/02 10:08:49;;;;;;;16.93;12.40;;;11.70;94.40;;;;;;4733568;30;20187;-86
2021/03/02 10:11:22;;;;;;;15.63;13.23;;;12.10;93.50;;;;;;4754992;30;20482;-86
2021/03/02 10:13:56;;;;;;;15.97;13.30;;;12.60;92.10;;;;;;4749392;30;20796;-85
2021/03/02 10:16:30;;;;;;;17.50;12.93;;;12.60;92.80;;;;;;4749287;30;20259;-89
2021/03/02 10:18:57;;;;;;;21.43;13.17;;;12.70;92.40;;;;;;4755631;30;20571;-91
2021/03/02 10:21:46;;;;;;;18.73;13.20;;;12.90;90.20;;;;;;4737519;30;20986;-89
2021/03/02 10:24:28;;;;;;;18.57;12.87;;;12.90;87.30;;;;;;4734681;30;20561;-88
2021/03/02 10:27:13;;;;;;;17.03;13.63;;;13.00;91.50;;;;;;4756567;30;20499;-87
2021/03/02 10:29:40;;;;;;;17.87;13.20;;;13.40;89.60;;;;;;4747507;30;20451;-87
2021/03/02 10:32:07;;;;;;;17.37;13.30;;;13.80;84.20;;;;;;4750531;30;20482;-89
2021/03/02 10:34:38;;;;;;;18.60;13.70;;;13.80;79.50;;;;;;4750346;30;20455;-88
2021/03/02 10:37:14;;;;;;;15.47;12.80;;;14.10;79.90;;;;;;4754015;30;20554;-86
2021/03/02 10:39:43;;;;;;;16.80;13.53;;;14.30;76.40;;;;;;4732412;30;20516;-91
2021/03/02 10:42:09;;;;;;;16.80;13.60;;;14.40;78.30;;;;;;4753120;30;20753;-89
2021/03/02 10:44:35;;;;;;;18.00;14.13;;;14.40;79.30;;;;;;4737522;30;20473;-89
2021/03/02 10:47:01;;;;;;;18.97;14.23;;;14.60;83.00;;;;;;4754539;30;21301;-89
2021/03/02 10:49:27;;;;;;;15.10;13.53;;;14.70;79.10;;;;;;4753642;30;20464;-89
2021/03/02 10:51:53;;;;;;;18.70;14.67;;;14.70;79.50;;;;;;4757394;30;20815;-87
2021/03/02 10:54:19;;;;;;;15.17;13.57;;;14.90;78.00;;;;;;4739840;30;20319;-88
2021/03/02 10:56:44;;;;;;;19.23;13.23;;;14.90;81.90;;;;;;4757677;30;20216;-87
2021/03/02 10:59:10;;;;;;;16.00;13.27;;;14.90;79.40;;;;;;4738160;30;20622;-86
2021/03/02 11:01:36;;;;;;;19.47;13.10;;;15.20;79.10;;;;;;4738659;30;20266;-90
2021/03/02 11:04:02;;;;;;;17.20;13.53;;;15.10;72.90;;;;;;4750938;30;20210;-90
2021/03/02 11:06:44;;;;;;;12.83;11.43;;;15.50;72.40;;;;;;4737096;30;20287;-90
2021/03/02 11:09:12;;;;;;;16.63;12.10;;;15.60;65.30;;;;;;4749943;30;20209;-92
2021/03/02 11:11:39;;;;;;;14.60;12.50;;;15.80;64.70;;;;;;4750356;30;20470;-89
2021/03/02 11:14:05;;;;;;;16.23;13.60;;;16.30;65.00;;;;;;4734200;30;20500;-92
2021/03/02 11:16:31;;;;;;;15.80;12.80;;;16.50;67.40;;;;;;4740529;30;20525;-90
2021/03/02 11:18:57;;;;;;;14.23;12.50;;;16.80;66.90;;;;;;4754275;30;20274;-90
2021/03/02 11:21:23;;;;;;;16.53;13.13;;;17.00;62.30;;;;;;4752497;30;20229;-90
2021/03/02 11:23:49;;;;;;;14.30;12.80;;;17.00;59.80;;;;;;4741114;30;20453;-91
2021/03/02 11:26:14;;;;;;;13.87;11.87;;;16.90;63.10;;;;;;4753027;30;20229;-93
2021/03/02 11:28:40;;;;;;;15.87;12.60;;;17.20;56.30;;;;;;4763402;30;20836;-91
2021/03/02 11:31:06;;;;;;;13.13;11.70;;;17.10;54.90;;;;;;4763103;30;20352;-89
2021/03/02 11:33:32;;;;;;;14.53;11.47;;;17.30;56.90;;;;;;4757656;30;20209;-90
2021/03/02 11:35:58;;;;;;;13.43;12.03;;;17.80;57.30;;;;;;4740821;30;20467;-87
2021/03/02 11:38:23;;;;;;;12.93;11.57;;;17.80;54.60;;;;;;4762071;30;20844;-88
2021/03/02 11:43:51;;;;;;;13.50;12.10;;;17.10;54.10;;;;;;4757271;30;20219;-88
2021/03/02 11:46:17;;;;;;;13.90;12.33;;;17.00;53.90;;;;;;4739086;30;20499;-87
2021/03/02 11:48:43;;;;;;;15.53;13.23;;;16.80;54.50;;;;;;4734754;30;20872;-86
2021/03/02 11:51:08;;;;;;;15.60;13.43;;;17.00;56.00;;;;;;4733728;30;20849;-87
2021/03/02 11:53:34;;;;;;;14.30;12.60;;;17.50;56.40;;;;;;4735531;30;20205;-88
2021/03/02 11:56:00;;;;;;;13.67;12.27;;;17.80;54.00;;;;;;4737804;30;20185;-87
2021/03/02 11:58:28;;;;;;;14.73;13.00;;;17.90;54.00;;;;;;4733885;30;20251;-89
2021/03/02 12:00:53;;;;;;;13.23;11.80;;;18.00;54.70;;;;;;4749550;30;20202;-89
2021/03/02 12:03:19;;;;;;;14.13;12.73;;;18.50;54.80;;;;;;4734484;30;20489;-88
2021/03/02 12:05:45;;;;;;;16.57;12.20;;;18.80;51.60;;;;;;4748139;30;20275;-89
2021/03/02 12:08:11;;;;;;;12.93;11.50;;;18.90;50.10;;;;;;4755831;30;20459;-91
2021/03/02 12:10:50;;;;;;;18.77;14.47;;;19.40;53.60;;;;;;4758718;30;20784;-86
2021/03/02 12:13:27;;;;;;;14.50;12.90;;;19.70;50.60;;;;;;4757096;30;20464;-86
2021/03/02 12:15:55;;;;;;;14.70;13.10;;;19.80;51.60;;;;;;4738225;30;20470;-96
2021/03/02 12:20:52;;;;;;;13.97;12.57;;;19.40;47.20;;;;;;4760620;30;20458;-89
2021/03/02 12:23:18;;;;;;;14.83;13.10;;;19.60;48.20;;;;;;4755817;30;20501;-96
2021/03/02 12:25:46;;;;;;;14.10;12.60;;;19.80;50.90;;;;;;4758816;30;20224;-93
2021/03/02 12:28:14;;;;;;;15.20;12.53;;;19.90;49.80;;;;;;4756251;30;20288;-92
2021/03/02 12:30:43;;;;;;;14.50;12.50;;;20.10;49.90;;;;;;4743516;30;20586;-93
2021/03/02 12:33:18;;;;;;;13.50;12.20;;;20.20;49.20;;;;;;4763658;30;20458;-93
2021/03/02 12:35:44;;;;;;;13.80;12.40;;;20.70;49.30;;;;;;4756400;30;20830;-93
2021/03/02 12:38:10;;;;;;;14.37;12.13;;;20.80;45.50;;;;;;4759554;30;20443;-93
2021/03/02 12:40:35;;;;;;;12.77;11.57;;;20.70;45.10;;;;;;4759492;30;20500;-92
2021/03/02 12:43:01;;;;;;;18.83;13.20;;;20.90;44.70;;;;;;4751988;30;20201;-91
2021/03/02 12:45:27;;;;;;;14.83;13.23;;;21.20;45.10;;;;;;4757413;30;20193;-91
2021/03/02 12:47:52;;;;;;;14.80;13.00;;;21.10;44.60;;;;;;4758202;30;20225;-92
2021/03/02 12:50:18;;;;;;;13.93;11.77;;;20.80;44.40;;;;;;4756187;30;20201;-89
2021/03/02 12:52:44;;;;;;;14.90;12.63;;;20.80;44.20;;;;;;4760274;30;20229;-89
2021/03/02 12:55:10;;;;;;;14.10;12.53;;;21.20;46.30;;;;;;4743664;30;20210;-89
2021/03/02 12:57:36;;;;;;;14.73;13.13;;;21.30;44.40;;;;;;4734595;30;20289;-89
2021/03/02 13:00:05;;;;;;;14.77;13.27;;;21.20;44.30;;;;;;4755397;30;20451;-96
2021/03/02 13:02:32;;;;;;;15.17;12.77;;;20.90;43.10;;;;;;4742173;30;20481;-90
2021/03/02 13:04:58;;;;;;;13.53;12.13;;;21.10;43.70;;;;;;4755776;30;20533;-93
2021/03/02 13:07:25;;;;;;;14.97;12.10;;;21.20;43.00;;;;;;4756790;30;20531;-94
2021/03/02 13:09:50;;;;;;;15.17;12.07;;;21.70;42.10;;;;;;4758580;30;20855;-90
2021/03/02 13:12:17;;;;;;;13.60;12.20;;;21.80;41.60;;;;;;4738824;30;20480;-96
2021/03/02 13:14:43;;;;;;;13.73;10.43;;;22.40;43.20;;;;;;4754350;30;20431;-89
2021/03/02 13:17:16;;;;;;;12.47;10.23;;;23.20;39.90;;;;;;4751190;29;20638;-95
2021/03/02 13:19:42;;;;;;;11.03;9.50;;;24.00;37.80;;;;;;4770825;30;20463;-92
2021/03/02 13:22:08;;;;;;;11.93;10.33;;;25.00;34.80;;;;;;4755162;30;20453;-94
2021/03/02 13:24:33;;;;;;;10.97;9.83;;;25.90;34.20;;;;;;4769643;30;20484;-92
2021/03/02 13:27:04;;;;;;;11.90;9.60;;;26.80;30.90;;;;;;4742389;30;20220;-95
2021/03/02 13:29:31;;;;;;;13.90;11.27;;;27.70;29.70;;;;;;4771786;30;20229;-96
2021/03/02 13:32:01;;;;;;;14.33;9.90;;;28.00;28.40;;;;;;4756797;30;20799;-96
2021/03/02 13:34:43;;;;;;;10.40;8.83;;;28.00;26.20;;;;;;4753617;30;20551;-96
2021/03/02 13:52:36;;;;;;;9.83;8.83;;;28.30;24.80;;;;;;3387664;24;20502;-96
2021/03/02 13:55:01;;;;;;;11.80;9.40;;;27.80;24.90;;;;;;4767534;30;20489;-96
2021/03/02 13:57:29;;;;;;;10.20;7.80;;;27.00;25.60;;;;;;4747544;30;20496;-94
2021/03/02 13:59:59;;;;;;;11.20;8.50;;;27.40;25.00;;;;;;4747539;30;20224;-96
2021/03/02 14:02:27;;;;;;;11.10;9.30;;;28.80;25.00;;;;;;4741668;30;20543;-96
2021/03/02 14:04:57;;;;;;;11.10;7.43;;;28.90;24.20;;;;;;4749990;30;20873;-96
2021/03/02 14:07:24;;;;;;;9.90;8.20;;;29.80;23.00;;;;;;4753300;30;20491;-96
2021/03/02 14:15:11;;;;;;;8.77;7.77;;;32.20;19.90;;;;;;4770963;30;20511;-96